Terminal Aerodrome Forecast
Issued by NWS

Home | Current Version | Previous Version | Text Only | Print | Product List | Glossary On
Versions: 1 2 3 4 5 6 7 8 9 10 11 12
000
FTAK31 PAFA 291122
TAFATA
TAF
PATA 291122Z 2912/3012 21007KT 6SM -RA BR BKN015 OVC025
     FM291500 21010KT 4SM -RA BR SCT007 BKN015 OVC025
     FM291800 21012KT 2SM -RA BR BKN007 OVC015
     FM300900 21012KT 4SM -RA BR BKN015 OVC025=

USA.gov is the U.S. government's official web portal to all federal, state and local government web resources and services.